Fireboat Challenger — WR8183 — position and weather

sailwx.info

Track history (hours):
 
Tides and Currents Weather Stations Pressure Air Temp Water Temp Dewpoint Dewpoint Depression Visibility Wind Speed Wind Dir Waves Ship Positions

Fireboat Challenger

Owner: Long Beach, City of, LONG BEACH, CA. More information available from US FCC via Universal Licensing System and Coast Guard Vessel Documentation Center.

Last reported at 2014-Oct-21 23:33 UTC. Time now 2014-Oct-22 03:15 UTC.
Position N 33°45' W 118°13'.

Length 29 m.

MMSI: 367067790.

Date/timePositionNaut miles runAvg speedWind from/ knotsBaromVisibWave heightAir tempDewpointWater temp
2014-Oct-21 23:33N 33°45' W 118°13'0 0.0
2014-Oct-21 22:28N 33°45' W 118°13'0 0.0
2014-Oct-21 21:33N 33°45' W 118°13'0 0.0
2014-Oct-21 20:31N 33°45' W 118°13'0 0.0
2014-Oct-21 19:33N 33°45' W 118°13'0 0.0
2014-Oct-21 18:31N 33°45' W 118°13'0 0.0
2014-Oct-21 17:32N 33°45' W 118°13'0 0.0
2014-Oct-21 16:33N 33°45' W 118°13'0 0.0
2014-Oct-21 13:33N 33°45' W 118°13'0 0.0
2014-Oct-21 12:32N 33°45' W 118°13'0 0.0
2014-Oct-21 11:33N 33°45' W 118°13'0 0.0
2014-Oct-21 10:32N 33°45' W 118°13'0 0.0
2014-Oct-21 08:11N 33°45' W 118°13'0 0.0
2014-Oct-21 07:16N 33°45' W 118°13'0 0.0
2014-Oct-21 06:30N 33°45' W 118°13'0 0.0
2014-Oct-21 05:30N 33°45' W 118°13'0 0.0
2014-Oct-21 04:29N 33°45' W 118°13'0 0.0
2014-Oct-21 03:31N 33°45' W 118°13'0 0.0
2014-Oct-21 02:33N 33°45' W 118°13'0 0.0
2014-Oct-21 01:33N 33°45' W 118°13'0 0.0
2014-Oct-21 00:33N 33°45' W 118°13'0 0.0
2014-Oct-20 22:28N 33°45' W 118°13'0 0.0
2014-Oct-20 16:19N 33°45' W 118°13'0 0.0
2014-Oct-20 14:32N 33°45' W 118°13'0 0.0
2014-Oct-20 11:33N 33°45' W 118°13'0 0.0
2014-Oct-20 10:29N 33°45' W 118°13'0 0.0
2014-Oct-20 09:32N 33°45' W 118°13'0 0.0
2014-Oct-20 08:15N 33°45' W 118°13'0 0.0
2014-Oct-20 07:33N 33°45' W 118°13'0 0.0
2014-Oct-20 06:31N 33°45' W 118°13'0 0.0
2014-Oct-20 04:26N 33°45' W 118°13'0 0.0
2014-Oct-20 01:29N 33°45' W 118°13'1 1.5
2014-Oct-20 00:32N 33°45' W 118°11'1 1.5
2014-Oct-19 23:33N 33°45' W 118°13'0 0.0
2014-Oct-19 21:30N 33°45' W 118°13'0 0.0
2014-Oct-19 18:08N 33°45' W 118°13'0 0.0
2014-Oct-19 17:18N 33°45' W 118°13'0 0.0
2014-Oct-19 01:33N 33°45' W 118°13'0 0.0
2014-Oct-19 00:33N 33°45' W 118°13'0 0.0
2014-Oct-18 23:33N 33°45' W 118°13'0 0.0
2014-Oct-18 22:33N 33°45' W 118°13'0 0.0
2014-Oct-18 21:33N 33°45' W 118°13'0 0.0
2014-Oct-18 20:29N 33°45' W 118°13'0 0.0
2014-Oct-18 19:33N 33°45' W 118°13'0 0.0
2014-Oct-18 18:32N 33°45' W 118°13'0 0.0
2014-Oct-18 17:32N 33°45' W 118°13'2 0.8
2014-Oct-18 15:25N 33°43' W 118°14'0 0.0
2014-Oct-18 01:33N 33°44' W 118°14'1 0.2
2014-Oct-17 17:33N 33°45' W 118°13'0 0.0
2014-Oct-17 16:33N 33°45' W 118°13'0 0.0
2014-Oct-17 15:33N 33°45' W 118°13'0 0.0
2014-Oct-17 14:26N 33°45' W 118°13'0 0.0
2014-Oct-17 13:33N 33°45' W 118°13'0 0.0
2014-Oct-17 12:30N 33°45' W 118°13'0 0.0
2014-Oct-17 11:25N 33°45' W 118°13'0 0.0
2014-Oct-17 10:31N 33°45' W 118°13'0 0.0
2014-Oct-17 09:31N 33°45' W 118°13'0 0.0
2014-Oct-17 08:33N 33°45' W 118°13'0 0.0
2014-Oct-17 07:33N 33°45' W 118°13'0 0.0
2014-Oct-17 06:33N 33°45' W 118°13'0 0.0
2014-Oct-17 05:33N 33°45' W 118°13'0 0.0
2014-Oct-17 04:19N 33°45' W 118°13'0 0.0
2014-Oct-17 03:33N 33°45' W 118°13'0 0.0
2014-Oct-17 02:33N 33°45' W 118°13'0 0.0
2014-Oct-17 01:25N 33°45' W 118°13'0 0.0
2014-Oct-17 00:17N 33°45' W 118°13'0 0.0
2014-Oct-16 23:27N 33°45' W 118°13'0 0.0
2014-Oct-16 22:33N 33°45' W 118°13'0 0.0
2014-Oct-16 21:33N 33°45' W 118°13'0 0.0
2014-Oct-16 20:33N 33°45' W 118°13'0 0.0
2014-Oct-16 19:33N 33°45' W 118°13'0 0.0
2014-Oct-16 18:33N 33°45' W 118°13'0 0.0
2014-Oct-16 17:33N 33°45' W 118°13'0 0.0
2014-Oct-15 02:22N 33°45' W 118°13'0 0.0
2014-Oct-15 01:30N 33°45' W 118°13'0 0.0
2014-Oct-15 00:33N 33°45' W 118°13'0 0.0
2014-Oct-14 23:33N 33°45' W 118°13'0 0.0
2014-Oct-14 22:33N 33°45' W 118°13'3 2.4
2014-Oct-14 21:25N 33°44' W 118°16'2 0.9
2014-Oct-14 19:10N 33°44' W 118°14'1 0.0
2014-Oct-13 01:33N 33°45' W 118°13'0 0.0
2014-Oct-13 00:33N 33°45' W 118°13'0 0.0
2014-Oct-12 23:33N 33°45' W 118°13'0 0.0
2014-Oct-12 22:33N 33°45' W 118°13'0 0.0
2014-Oct-12 21:33N 33°45' W 118°13'0 0.0
2014-Oct-12 20:33N 33°45' W 118°13'0 0.0
2014-Oct-12 19:32N 33°45' W 118°13'0 0.0
2014-Oct-12 18:33N 33°45' W 118°13'0 0.0
2014-Oct-12 17:33N 33°45' W 118°13'0 0.0
2014-Oct-12 16:33N 33°45' W 118°13'0 0.0
2014-Oct-12 15:33N 33°45' W 118°13'0 0.0
2014-Oct-12 14:33N 33°45' W 118°13'1 1.1
2014-Oct-12 13:24N 33°46' W 118°12'  
Track history (hours):
 
Tides and Currents Weather Stations Pressure Air Temp Water Temp Dewpoint Dewpoint Depression Visibility Wind Speed Wind Dir Waves Ship Positions

Fireboat Challenger

Owner: Long Beach, City of, LONG BEACH, CA. More information available from US FCC via Universal Licensing System and Coast Guard Vessel Documentation Center.

Last reported at 2014-Oct-21 23:33 UTC. Time now 2014-Oct-22 03:15 UTC.
Position N 33°45' W 118°13'.

Length 29 m.

MMSI: 367067790.

Date/timePositionNaut miles runAvg speedWind from/ knotsBaromVisibWave heightAir tempDewpointWater temp
2014-Oct-21 23:33N 33°45' W 118°13'0 0.0
2014-Oct-21 22:28N 33°45' W 118°13'0 0.0
2014-Oct-21 21:33N 33°45' W 118°13'0 0.0
2014-Oct-21 20:31N 33°45' W 118°13'0 0.0
2014-Oct-21 19:33N 33°45' W 118°13'0 0.0
2014-Oct-21 18:31N 33°45' W 118°13'0 0.0
2014-Oct-21 17:32N 33°45' W 118°13'0 0.0
2014-Oct-21 16:33N 33°45' W 118°13'0 0.0
2014-Oct-21 13:33N 33°45' W 118°13'0 0.0
2014-Oct-21 12:32N 33°45' W 118°13'0 0.0
2014-Oct-21 11:33N 33°45' W 118°13'0 0.0
2014-Oct-21 10:32N 33°45' W 118°13'0 0.0
2014-Oct-21 08:11N 33°45' W 118°13'0 0.0
2014-Oct-21 07:16N 33°45' W 118°13'0 0.0
2014-Oct-21 06:30N 33°45' W 118°13'0 0.0
2014-Oct-21 05:30N 33°45' W 118°13'0 0.0
2014-Oct-21 04:29N 33°45' W 118°13'0 0.0
2014-Oct-21 03:31N 33°45' W 118°13'0 0.0
2014-Oct-21 02:33N 33°45' W 118°13'0 0.0
2014-Oct-21 01:33N 33°45' W 118°13'0 0.0
2014-Oct-21 00:33N 33°45' W 118°13'0 0.0
2014-Oct-20 22:28N 33°45' W 118°13'0 0.0
2014-Oct-20 16:19N 33°45' W 118°13'0 0.0
2014-Oct-20 14:32N 33°45' W 118°13'0 0.0
2014-Oct-20 11:33N 33°45' W 118°13'0 0.0
2014-Oct-20 10:29N 33°45' W 118°13'0 0.0
2014-Oct-20 09:32N 33°45' W 118°13'0 0.0
2014-Oct-20 08:15N 33°45' W 118°13'0 0.0
2014-Oct-20 07:33N 33°45' W 118°13'0 0.0
2014-Oct-20 06:31N 33°45' W 118°13'0 0.0
2014-Oct-20 04:26N 33°45' W 118°13'0 0.0
2014-Oct-20 01:29N 33°45' W 118°13'1 1.5
2014-Oct-20 00:32N 33°45' W 118°11'1 1.5
2014-Oct-19 23:33N 33°45' W 118°13'0 0.0
2014-Oct-19 21:30N 33°45' W 118°13'0 0.0
2014-Oct-19 18:08N 33°45' W 118°13'0 0.0
2014-Oct-19 17:18N 33°45' W 118°13'0 0.0
2014-Oct-19 01:33N 33°45' W 118°13'0 0.0
2014-Oct-19 00:33N 33°45' W 118°13'0 0.0
2014-Oct-18 23:33N 33°45' W 118°13'0 0.0
2014-Oct-18 22:33N 33°45' W 118°13'0 0.0
2014-Oct-18 21:33N 33°45' W 118°13'0 0.0
2014-Oct-18 20:29N 33°45' W 118°13'0 0.0
2014-Oct-18 19:33N 33°45' W 118°13'0 0.0
2014-Oct-18 18:32N 33°45' W 118°13'0 0.0
2014-Oct-18 17:32N 33°45' W 118°13'2 0.8
2014-Oct-18 15:25N 33°43' W 118°14'0 0.0
2014-Oct-18 01:33N 33°44' W 118°14'1 0.2
2014-Oct-17 17:33N 33°45' W 118°13'0 0.0
2014-Oct-17 16:33N 33°45' W 118°13'0 0.0
2014-Oct-17 15:33N 33°45' W 118°13'0 0.0
2014-Oct-17 14:26N 33°45' W 118°13'0 0.0
2014-Oct-17 13:33N 33°45' W 118°13'0 0.0
2014-Oct-17 12:30N 33°45' W 118°13'0 0.0
2014-Oct-17 11:25N 33°45' W 118°13'0 0.0
2014-Oct-17 10:31N 33°45' W 118°13'0 0.0
2014-Oct-17 09:31N 33°45' W 118°13'0 0.0
2014-Oct-17 08:33N 33°45' W 118°13'0 0.0
2014-Oct-17 07:33N 33°45' W 118°13'0 0.0
2014-Oct-17 06:33N 33°45' W 118°13'0 0.0
2014-Oct-17 05:33N 33°45' W 118°13'0 0.0
2014-Oct-17 04:19N 33°45' W 118°13'0 0.0
2014-Oct-17 03:33N 33°45' W 118°13'0 0.0
2014-Oct-17 02:33N 33°45' W 118°13'0 0.0
2014-Oct-17 01:25N 33°45' W 118°13'0 0.0
2014-Oct-17 00:17N 33°45' W 118°13'0 0.0
2014-Oct-16 23:27N 33°45' W 118°13'0 0.0
2014-Oct-16 22:33N 33°45' W 118°13'0 0.0
2014-Oct-16 21:33N 33°45' W 118°13'0 0.0
2014-Oct-16 20:33N 33°45' W 118°13'0 0.0
2014-Oct-16 19:33N 33°45' W 118°13'0 0.0
2014-Oct-16 18:33N 33°45' W 118°13'0 0.0
2014-Oct-16 17:33N 33°45' W 118°13'0 0.0
2014-Oct-15 02:22N 33°45' W 118°13'0 0.0
2014-Oct-15 01:30N 33°45' W 118°13'0 0.0
2014-Oct-15 00:33N 33°45' W 118°13'0 0.0
2014-Oct-14 23:33N 33°45' W 118°13'0 0.0
2014-Oct-14 22:33N 33°45' W 118°13'3 2.4
2014-Oct-14 21:25N 33°44' W 118°16'2 0.9
2014-Oct-14 19:10N 33°44' W 118°14'1 0.0
2014-Oct-13 01:33N 33°45' W 118°13'0 0.0
2014-Oct-13 00:33N 33°45' W 118°13'0 0.0
2014-Oct-12 23:33N 33°45' W 118°13'0 0.0
2014-Oct-12 22:33N 33°45' W 118°13'0 0.0
2014-Oct-12 21:33N 33°45' W 118°13'0 0.0
2014-Oct-12 20:33N 33°45' W 118°13'0 0.0
2014-Oct-12 19:32N 33°45' W 118°13'0 0.0
2014-Oct-12 18:33N 33°45' W 118°13'0 0.0
2014-Oct-12 17:33N 33°45' W 118°13'0 0.0
2014-Oct-12 16:33N 33°45' W 118°13'0 0.0
2014-Oct-12 15:33N 33°45' W 118°13'0 0.0
2014-Oct-12 14:33N 33°45' W 118°13'1 1.1
2014-Oct-12 13:24N 33°46' W 118°12'  

Dump ship's entire track history